Time;durP1;ratioP1;P1;durP2;ratioP2;P2;SDS_P1;SDS_P2;PMS_P1;PMS_P2;Temp;Humidity;BMP_temperature;BMP_pressure;BME280_temperature;BME280_humidity;BME280_pressure;Samples;Min_cycle;Max_cycle;Signal;HPM_P1;HPM_P2
2023/07/17 00:01:37;;;;;;;;;;;;;;;16.12;100.00;101559.69;5060995;27;19973;-55
2023/07/17 00:04:02;;;;;;;;;;;;;;;16.04;100.00;101556.97;5055866;28;19927;-53
2023/07/17 00:06:28;;;;;;;;;;;;;;;15.99;100.00;101556.00;5058033;28;19984;-54
2023/07/17 00:08:53;;;;;;;;;;;;;;;15.96;100.00;101561.16;5060135;28;19937;-56
2023/07/17 00:11:18;;;;;;;;;;;;;;;15.93;95.97;101561.97;5072255;28;20297;-54
2023/07/17 00:13:43;;;;;;;;;;;;;;;15.92;96.88;101555.03;5051420;28;20514;-55
2023/07/17 00:16:09;;;;;;;;;;;;;;;15.92;98.92;101552.44;5055277;28;19944;-54
2023/07/17 00:18:34;;;;;;;;;;;;;;;15.90;100.00;101556.75;5057326;28;19933;-44
2023/07/17 00:21:03;;;;;;;;;;;;;;;15.95;98.35;101557.66;5056648;27;19939;-44
2023/07/17 00:23:28;;;;;;;;;;;;;;;15.89;99.51;101559.28;5057406;28;19924;-45
2023/07/17 00:25:53;;;;;;;;;;;;;;;15.87;99.43;101558.41;5058127;28;19969;-45
2023/07/17 00:28:19;;;;;;;;;;;;;;;15.84;98.25;101560.94;5055042;28;19924;-44
2023/07/17 00:30:45;;;;;;;;;;;;;;;15.85;96.32;101557.50;5061776;28;20378;-45
2023/07/17 00:33:10;;;;;;;;;;;;;;;15.81;98.22;101556.56;5058706;27;20377;-45
2023/07/17 00:35:35;;;;;;;;;;;;;;;15.79;100.00;101551.34;5057924;27;20454;-45
2023/07/17 00:38:01;;;;;;;;;;;;;;;15.80;100.00;101554.81;5063897;28;19968;-45
2023/07/17 00:40:26;;;;;;;;;;;;;;;15.81;100.00;101557.44;5065433;28;20319;-54
2023/07/17 00:42:57;;;;;;;;;;;;;;;15.80;100.00;101560.00;5067151;28;19916;-55
2023/07/17 00:45:22;;;;;;;;;;;;;;;15.79;100.00;101560.84;5062094;28;19924;-55
2023/07/17 00:47:47;;;;;;;;;;;;;;;15.78;99.54;101561.72;5063548;27;20275;-55
2023/07/17 00:50:12;;;;;;;;;;;;;;;15.73;100.00;101563.34;5064893;27;19988;-55
2023/07/17 00:52:38;;;;;;;;;;;;;;;15.68;100.00;101565.84;5063623;28;19917;-53
2023/07/17 00:55:04;;;;;;;;;;;;;;;15.66;98.71;101564.09;5040840;28;19924;-54
2023/07/17 00:57:29;;;;;;;;;;;;;;;15.65;98.73;101570.09;5062665;28;19970;-54
2023/07/17 00:59:55;;;;;;;;;;;;;;;15.65;98.38;101567.50;5063843;28;19965;-54
2023/07/17 01:02:21;;;;;;;;;;;;;;;15.60;99.11;101582.94;5062326;27;20019;-54
2023/07/17 01:04:47;;;;;;;;;;;;;;;15.63;100.00;101575.25;5065215;28;19920;-44
2023/07/17 01:07:13;;;;;;;;;;;;;;;15.57;99.29;101569.91;5056175;27;19925;-44
2023/07/17 01:09:39;;;;;;;;;;;;;;;15.53;98.68;101576.78;5054221;28;19982;-44
2023/07/17 01:12:04;;;;;;;;;;;;;;;15.49;99.49;101577.56;5052890;27;19956;-45
2023/07/17 01:14:30;;;;;;;;;;;;;;;15.45;99.11;101582.66;5058674;28;20395;-43
2023/07/17 01:16:55;;;;;;;;;;;;;;;15.40;99.38;101573.91;5055201;28;19920;-44
2023/07/17 01:19:21;;;;;;;;;;;;;;;15.38;99.03;101583.38;5037700;28;19924;-45
2023/07/17 01:21:51;;;;;;;;;;;;;;;15.33;99.85;101583.28;5053706;28;19921;-44
2023/07/17 01:24:17;;;;;;;;;;;;;;;15.28;100.00;101584.91;5066248;28;19928;-44
2023/07/17 01:26:42;;;;;;;;;;;;;;;15.25;100.00;101588.31;5056357;28;20347;-55
2023/07/17 01:29:07;;;;;;;;;;;;;;;15.22;100.00;101587.34;5052214;28;20353;-55
2023/07/17 01:31:33;;;;;;;;;;;;;;;15.18;100.00;101593.34;5063060;28;20392;-55
2023/07/17 01:33:58;;;;;;;;;;;;;;;15.16;100.00;101595.88;5062395;27;19917;-55
2023/07/17 01:36:25;;;;;;;;;;;;;;;15.09;100.00;101594.00;5060400;28;19920;-53
2023/07/17 01:38:51;;;;;;;;;;;;;;;15.05;100.00;101597.38;5062044;28;20382;-55
2023/07/17 01:41:16;;;;;;;;;;;;;;;15.00;100.00;101592.09;5062638;28;19919;-55
2023/07/17 01:43:41;;;;;;;;;;;;;;;14.97;100.00;101602.38;5061945;28;19932;-55
2023/07/17 01:46:06;;;;;;;;;;;;;;;14.93;100.00;101594.53;5071323;27;20290;-54
2023/07/17 01:48:34;;;;;;;;;;;;;;;14.91;100.00;101596.19;5062893;28;19982;-54
2023/07/17 01:50:59;;;;;;;;;;;;;;;14.86;100.00;101590.03;5061102;28;20003;-55
2023/07/17 01:53:24;;;;;;;;;;;;;;;14.84;100.00;101591.72;5059729;27;20007;-55
2023/07/17 01:55:50;;;;;;;;;;;;;;;14.80;100.00;101588.19;5059127;28;20324;-54
2023/07/17 01:58:15;;;;;;;;;;;;;;;14.76;100.00;101588.97;5059449;27;20048;-55
2023/07/17 02:00:40;;;;;;;;;;;;;;;14.73;100.00;101599.25;5059078;28;19920;-53
2023/07/17 02:03:06;;;;;;;;;;;;;;;14.66;100.00;101598.25;5040083;28;20696;-53
2023/07/17 02:05:31;;;;;;;;;;;;;;;14.66;100.00;101598.25;5058524;28;19931;-54
2023/07/17 02:07:56;;;;;;;;;;;;;;;14.60;100.00;101592.91;5043745;28;20302;-56
2023/07/17 02:10:22;;;;;;;;;;;;;;;14.58;100.00;101593.72;5056791;28;19972;-57
2023/07/17 02:12:47;;;;;;;;;;;;;;;14.53;100.00;101592.75;5058980;27;19924;-54
2023/07/17 02:15:13;;;;;;;;;;;;;;;14.48;100.00;101593.50;5060083;27;19920;-55
2023/07/17 02:17:38;;;;;;;;;;;;;;;14.43;100.00;101589.91;5060586;28;19932;-56
2023/07/17 02:20:10;;;;;;;;;;;;;;;14.40;100.00;101597.59;5055430;28;19921;-54
2023/07/17 02:22:35;;;;;;;;;;;;;;;14.38;100.00;101596.69;5061573;28;19931;-54
2023/07/17 02:25:01;;;;;;;;;;;;;;;14.34;100.00;101599.16;5060967;28;20011;-56
2023/07/17 02:27:26;;;;;;;;;;;;;;;14.32;100.00;101606.00;5042032;28;19939;-44
2023/07/17 02:29:52;;;;;;;;;;;;;;;14.29;100.00;101595.59;5056462;28;20012;-45
2023/07/17 02:32:17;;;;;;;;;;;;;;;14.27;100.00;101599.84;5042034;28;19920;-45
2023/07/17 02:34:42;;;;;;;;;;;;;;;14.25;100.00;101607.56;5057726;28;19920;-45
2023/07/17 02:37:11;;;;;;;;;;;;;;;14.25;100.00;101611.84;5060179;28;20397;-43
2023/07/17 02:39:36;;;;;;;;;;;;;;;14.20;100.00;101611.78;5060211;28;19948;-47
2023/07/17 02:42:02;;;;;;;;;;;;;;;14.19;100.00;101612.56;5059855;28;20386;-47
2023/07/17 02:44:27;;;;;;;;;;;;;;;14.15;100.00;101610.78;5061548;28;19920;-44
2023/07/17 02:46:52;;;;;;;;;;;;;;;14.12;100.00;101611.56;5057613;28;19920;-46
2023/07/17 02:49:17;;;;;;;;;;;;;;;14.10;100.00;101609.78;5040646;28;19980;-45
2023/07/17 02:51:43;;;;;;;;;;;;;;;14.09;100.00;101618.38;5041039;28;19928;-43
2023/07/17 02:54:08;;;;;;;;;;;;;;;14.08;100.00;101614.03;5054221;28;20303;-45
2023/07/17 02:56:33;;;;;;;;;;;;;;;14.05;100.00;101609.66;5057291;28;20011;-44
2023/07/17 02:58:59;;;;;;;;;;;;;;;14.03;100.00;101620.81;5057633;27;19952;-45
2023/07/17 03:01:24;;;;;;;;;;;;;;;14.01;100.00;101622.44;5054575;28;19921;-45
2023/07/17 03:03:50;;;;;;;;;;;;;;;14.00;100.00;101623.28;5061881;28;19929;-43
2023/07/17 03:06:15;;;;;;;;;;;;;;;13.95;100.00;101624.06;5061777;28;19920;-45
2023/07/17 03:08:40;;;;;;;;;;;;;;;13.92;100.00;101626.56;5065040;28;19963;-43
2023/07/17 03:11:05;;;;;;;;;;;;;;;13.90;100.00;101632.53;5062179;28;19921;-46
2023/07/17 03:13:31;;;;;;;;;;;;;;;13.88;100.00;101627.31;5062370;28;19981;-44
2023/07/17 03:15:58;;;;;;;;;;;;;;;13.86;100.00;101634.16;5061079;28;19953;-44
2023/07/17 03:18:24;;;;;;;;;;;;;;;13.85;100.00;101626.38;5062406;28;19941;-44
2023/07/17 03:20:49;;;;;;;;;;;;;;;13.86;100.00;101635.88;5061522;28;19920;-44
2023/07/17 03:23:14;;;;;;;;;;;;;;;13.85;100.00;101639.28;5042695;28;20306;-44
2023/07/17 03:25:43;;;;;;;;;;;;;;;13.84;100.00;101634.97;5066447;28;19935;-44
2023/07/17 03:28:08;;;;;;;;;;;;;;;13.82;100.00;101636.59;5059890;28;20335;-44
2023/07/17 03:30:34;;;;;;;;;;;;;;;13.80;100.00;101639.16;5047537;28;20370;-45
2023/07/17 03:32:59;;;;;;;;;;;;;;;13.79;100.00;101634.81;5065238;28;19927;-44
2023/07/17 03:35:24;;;;;;;;;;;;;;;13.77;100.00;101631.34;5053893;28;19928;-43
2023/07/17 03:37:49;;;;;;;;;;;;;;;13.76;100.00;101634.72;5055806;28;19920;-44
2023/07/17 03:40:15;;;;;;;;;;;;;;;13.73;100.00;101633.78;5055508;28;19921;-44
2023/07/17 03:42:40;;;;;;;;;;;;;;;13.71;100.00;101638.94;5055172;28;20012;-45
2023/07/17 03:45:05;;;;;;;;;;;;;;;13.72;100.00;101635.50;5058951;28;19925;-47
2023/07/17 03:47:31;;;;;;;;;;;;;;;13.73;100.00;101639.84;5057187;28;19928;-44
2023/07/17 03:49:56;;;;;;;;;;;;;;;13.72;100.00;101637.22;5055048;28;19928;-44
2023/07/17 03:52:21;;;;;;;;;;;;;;;13.71;100.00;101641.50;5058601;28;19971;-44
2023/07/17 03:54:46;;;;;;;;;;;;;;;13.68;100.00;101637.09;5053638;28;19939;-46
2023/07/17 03:57:12;;;;;;;;;;;;;;;13.66;100.00;101648.25;5059994;28;19924;-45
2023/07/17 03:59:53;;;;;;;;;;;;;;;13.65;100.00;101643.88;5040337;28;20309;-44
2023/07/17 04:02:19;;;;;;;;;;;;;;;13.64;100.00;101652.47;5057301;28;20633;-45
2023/07/17 04:04:44;;;;;;;;;;;;;;;13.64;100.00;101655.06;5059442;28;20440;-46
2023/07/17 04:07:09;;;;;;;;;;;;;;;13.63;100.00;101650.72;5036906;28;19925;-44
2023/07/17 04:09:35;;;;;;;;;;;;;;;13.63;100.00;101655.91;5061380;28;19924;-45
2023/07/17 04:12:03;;;;;;;;;;;;;;;13.63;100.00;101661.94;5057045;28;19968;-44
2023/07/17 04:14:28;;;;;;;;;;;;;;;13.64;100.00;101671.44;5057759;28;19928;-43
2023/07/17 04:16:54;;;;;;;;;;;;;;;13.65;100.00;101672.31;5052284;28;19929;-46
2023/07/17 04:19:19;;;;;;;;;;;;;;;13.65;100.00;101673.22;5056022;28;19953;-43
2023/07/17 04:21:44;;;;;;;;;;;;;;;13.67;100.00;101665.50;5056996;28;20022;-44
2023/07/17 04:24:09;;;;;;;;;;;;;;;13.69;100.00;101669.00;5057861;28;20055;-45
2023/07/17 04:26:35;;;;;;;;;;;;;;;13.71;100.00;101675.09;5054555;28;19928;-45
2023/07/17 04:29:00;;;;;;;;;;;;;;;13.72;100.00;101670.81;5054047;28;19921;-45
2023/07/17 04:31:25;;;;;;;;;;;;;;;13.75;100.00;101670.88;5058015;28;19984;-44
2023/07/17 04:33:50;;;;;;;;;;;;;;;13.76;100.00;101668.31;5053026;28;20019;-48
2023/07/17 04:36:15;;;;;;;;;;;;;;;13.94;100.00;101670.53;5039064;28;19920;-44
2023/07/17 04:38:41;;;;;;;;;;;;;;;14.50;100.00;101684.13;5055565;28;19924;-44
2023/07/17 04:41:06;;;;;;;;;;;;;;;15.10;100.00;101686.41;5057022;28;19924;-47
2023/07/17 04:43:31;;;;;;;;;;;;;;;15.60;100.00;101688.38;5056247;27;20368;-45
2023/07/17 04:45:57;;;;;;;;;;;;;;;16.02;97.41;101688.38;5057750;27;19929;-45
2023/07/17 04:48:22;;;;;;;;;;;;;;;16.35;95.71;101695.88;5055976;28;19932;-47
2023/07/17 04:50:47;;;;;;;;;;;;;;;16.58;94.29;101694.56;5054652;28;19920;-45
2023/07/17 04:53:12;;;;;;;;;;;;;;;16.64;90.37;101701.56;5055235;28;19952;-48
2023/07/17 04:55:38;;;;;;;;;;;;;;;16.69;92.10;101696.47;5054465;28;19929;-43
2023/07/17 04:58:03;;;;;;;;;;;;;;;16.94;91.44;101698.63;5054751;28;20275;-45
2023/07/17 05:00:28;;;;;;;;;;;;;;;17.14;90.28;101702.38;5057460;28;21731;-48
2023/07/17 05:02:54;;;;;;;;;;;;;;;17.07;88.51;101704.88;5055707;28;19973;-47
2023/07/17 05:05:19;;;;;;;;;;;;;;;16.76;87.84;101706.13;5066316;27;19972;-46
2023/07/17 05:07:44;;;;;;;;;;;;;;;16.43;89.28;101704.66;5049342;28;20007;-44
2023/07/17 05:10:10;;;;;;;;;;;;;;;16.17;91.17;101708.53;5064743;28;19928;-46
2023/07/17 05:12:37;;;;;;;;;;;;;;;16.09;92.17;101711.00;5058341;28;19989;-47
2023/07/17 05:15:03;;;;;;;;;;;;;;;16.32;91.62;101711.41;5066669;28;19920;-44
2023/07/17 05:17:29;;;;;;;;;;;;;;;16.73;91.51;101706.94;5062067;28;20408;-44
2023/07/17 05:19:54;;;;;;;;;;;;;;;17.22;89.62;101714.59;5060982;28;19924;-44
2023/07/17 05:22:19;;;;;;;;;;;;;;;17.65;85.79;101721.25;5059769;28;19920;-45
2023/07/17 05:24:45;;;;;;;;;;;;;;;17.89;86.43;101705.09;5061485;27;19967;-48
2023/07/17 05:27:10;;;;;;;;;;;;;;;17.77;85.53;101730.97;5063694;28;21072;-49
2023/07/17 05:29:36;;;;;;;;;;;;;;;17.74;86.08;101725.75;5062838;28;19916;-46
2023/07/17 05:32:01;;;;;;;;;;;;;;;17.86;83.56;101723.28;5068559;28;19931;-48
2023/07/17 05:34:26;;;;;;;;;;;;;;;18.10;83.27;101726.19;5059133;28;20580;-44
2023/07/17 05:36:51;;;;;;;;;;;;;;;18.21;80.43;101727.16;5063274;28;20049;-44
2023/07/17 05:39:17;;;;;;;;;;;;;;;18.31;81.83;101730.72;5056757;28;19932;-47
2023/07/17 05:41:42;;;;;;;;;;;;;;;18.56;81.16;101731.81;5058636;28;20654;-47
2023/07/17 05:44:07;;;;;;;;;;;;;;;18.92;79.23;101736.50;5059584;28;19989;-47
2023/07/17 05:46:32;;;;;;;;;;;;;;;19.06;78.26;101736.63;5062577;28;19929;-45
2023/07/17 05:48:57;;;;;;;;;;;;;;;19.05;75.84;101737.50;5061079;28;19924;-44
2023/07/17 05:51:23;;;;;;;;;;;;;;;18.91;75.78;101744.31;5059119;28;19992;-48
2023/07/17 05:53:48;;;;;;;;;;;;;;;18.88;76.62;101746.91;5059595;28;19921;-45
2023/07/17 05:56:15;;;;;;;;;;;;;;;18.81;78.91;101745.09;5061891;28;19925;-44
2023/07/17 05:58:41;;;;;;;;;;;;;;;18.85;79.79;101754.69;5058587;28;19924;-45
2023/07/17 06:01:06;;;;;;;;;;;;;;;19.03;79.46;101747.00;5040884;28;19928;-44
2023/07/17 06:03:31;;;;;;;;;;;;;;;19.19;78.32;101746.25;5064070;28;19920;-46
2023/07/17 06:05:56;;;;;;;;;;;;;;;19.34;78.23;101749.81;5058699;28;19973;-43
2023/07/17 06:08:22;;;;;;;;;;;;;;;19.36;73.42;101753.34;5057037;27;19936;-43
2023/07/17 06:10:48;;;;;;;;;;;;;;;18.93;75.95;101745.22;5058793;27;19935;-44
2023/07/17 06:13:13;;;;;;;;;;;;;;;19.03;77.23;101755.69;5056608;27;19920;-43
2023/07/17 06:15:39;;;;;;;;;;;;;;;18.90;77.06;101753.00;5039403;28;19925;-45
2023/07/17 06:18:04;;;;;;;;;;;;;;;19.01;78.44;101761.78;5059946;28;20369;-43
2023/07/17 06:20:29;;;;;;;;;;;;;;;19.33;77.43;101766.34;5060877;28;19925;-43
2023/07/17 06:22:55;;;;;;;;;;;;;;;19.44;75.86;101770.75;5058723;28;20501;-44
2023/07/17 06:25:20;;;;;;;;;;;;;;;19.57;77.09;101771.69;5062916;28;19920;-44
2023/07/17 06:27:45;;;;;;;;;;;;;;;19.62;74.85;101769.16;5057663;28;20278;-44
2023/07/17 06:30:10;;;;;;;;;;;;;;;19.65;72.79;101776.97;5060825;28;19973;-46
2023/07/17 06:32:36;;;;;;;;;;;;;;;19.70;74.55;101776.13;5067045;28;19920;-44
2023/07/17 06:35:01;;;;;;;;;;;;;;;19.88;75.76;101774.47;5055557;28;19956;-44
2023/07/17 06:37:26;;;;;;;;;;;;;;;20.07;74.98;101778.91;5060022;28;20331;-43
2023/07/17 06:39:51;;;;;;;;;;;;;;;20.05;72.04;101786.75;5056714;27;19928;-45
2023/07/17 06:42:17;;;;;;;;;;;;;;;20.08;73.65;101786.75;5058485;28;20335;-43
2023/07/17 06:44:42;;;;;;;;;;;;;;;20.20;74.54;101783.28;5061917;28;19924;-44
2023/07/17 06:47:07;;;;;;;;;;;;;;;20.04;73.29;101789.34;5059412;27;20307;-43
2023/07/17 06:49:32;;;;;;;;;;;;;;;19.67;71.29;101796.16;5057320;27;19928;-44
2023/07/17 06:51:58;;;;;;;;;;;;;;;19.41;74.46;101790.72;5057533;28;20404;-44
2023/07/17 06:54:23;;;;;;;;;;;;;;;19.18;72.12;101801.00;5056407;28;19925;-44
2023/07/17 06:56:48;;;;;;;;;;;;;;;18.90;72.46;101807.72;5056538;27;19962;-45
2023/07/17 06:59:13;;;;;;;;;;;;;;;18.85;74.94;101812.00;5056215;28;19932;-45
2023/07/17 07:01:39;;;;;;;;;;;;;;;18.73;75.34;101803.22;5060668;28;19920;-47
2023/07/17 07:04:04;;;;;;;;;;;;;;;18.61;76.08;101803.06;5055590;28;19980;-44
2023/07/17 07:06:30;;;;;;;;;;;;;;;18.50;75.81;101802.09;5060305;28;19927;-44
2023/07/17 07:08:55;;;;;;;;;;;;;;;18.41;76.31;101810.69;5063858;28;19928;-43
2023/07/17 07:11:20;;;;;;;;;;;;;;;18.33;77.38;101821.88;5041822;28;19928;-44
2023/07/17 07:13:46;;;;;;;;;;;;;;;18.30;77.17;101820.09;5055272;28;19924;-44
2023/07/17 07:16:12;;;;;;;;;;;;;;;18.20;76.52;101821.75;5053001;28;19935;-45
2023/07/17 07:18:37;;;;;;;;;;;;;;;18.25;76.49;101821.78;5066926;28;20413;-44
2023/07/17 07:21:03;;;;;;;;;;;;;;;18.23;76.44;101821.75;5061000;27;19920;-44
2023/07/17 07:23:28;;;;;;;;;;;;;;;18.33;76.64;101827.97;5051994;28;19920;-45
2023/07/17 07:25:53;;;;;;;;;;;;;;;18.40;75.94;101823.69;5061053;27;19927;-44
2023/07/17 07:28:19;;;;;;;;;;;;;;;18.42;76.21;101829.78;5061965;28;19932;-44
2023/07/17 07:30:44;;;;;;;;;;;;;;;18.84;76.41;101833.72;5065419;28;19916;-43
2023/07/17 07:33:09;;;;;;;;;;;;;;;19.21;72.47;101830.56;5060572;28;19920;-45
2023/07/17 07:35:35;;;;;;;;;;;;;;;19.35;74.13;101837.63;5062434;28;19924;-44
2023/07/17 07:38:00;;;;;;;;;;;;;;;19.55;71.02;101838.66;5058775;28;20366;-45
2023/07/17 07:40:25;;;;;;;;;;;;;;;19.64;71.06;101837.84;5056586;28;19921;-45
2023/07/17 07:42:50;;;;;;;;;;;;;;;19.87;69.54;101838.88;5057965;28;19920;-45
2023/07/17 07:45:17;;;;;;;;;;;;;;;20.13;67.64;101844.19;5056810;27;19920;-46
2023/07/17 07:47:42;;;;;;;;;;;;;;;20.00;70.65;101847.63;5061907;27;19964;-54
2023/07/17 07:50:07;;;;;;;;;;;;;;;20.09;70.79;101851.16;5058080;28;20409;-53
2023/07/17 07:52:33;;;;;;;;;;;;;;;20.09;70.44;101848.56;5037231;28;19924;-56
2023/07/17 07:54:58;;;;;;;;;;;;;;;20.15;68.29;101847.72;5055841;28;19916;-54
2023/07/17 07:57:24;;;;;;;;;;;;;;;20.16;69.51;101848.59;5035285;28;19934;-54
2023/07/17 07:59:49;;;;;;;;;;;;;;;20.27;68.59;101847.75;5057972;28;20008;-55
2023/07/17 08:02:14;;;;;;;;;;;;;;;20.42;67.93;101848.66;5049717;27;19924;-56
2023/07/17 08:04:40;;;;;;;;;;;;;;;20.52;67.57;101855.72;5056835;27;19917;-58
2023/07/17 08:07:05;;;;;;;;;;;;;;;20.67;63.81;101850.50;5054465;28;20267;-53
2023/07/17 08:09:30;;;;;;;;;;;;;;;20.74;65.75;101848.78;5032193;28;20048;-55
2023/07/17 08:11:56;;;;;;;;;;;;;;;20.66;64.99;101856.59;5055455;28;20025;-54
2023/07/17 08:14:21;;;;;;;;;;;;;;;20.66;65.39;101851.38;5056257;27;19924;-55
2023/07/17 08:16:47;;;;;;;;;;;;;;;20.78;65.98;101847.91;5059102;28;19927;-54
2023/07/17 08:19:12;;;;;;;;;;;;;;;20.96;64.80;101858.41;5058675;28;19940;-54
2023/07/17 08:21:37;;;;;;;;;;;;;;;20.98;65.23;101861.00;5059042;28;19935;-56
2023/07/17 08:24:02;;;;;;;;;;;;;;;20.81;64.36;101854.03;5057907;28;19988;-54
2023/07/17 08:26:28;;;;;;;;;;;;;;;20.77;63.52;101860.13;5036195;28;19959;-57
2023/07/17 08:28:54;;;;;;;;;;;;;;;20.79;64.68;101857.50;5061358;28;19927;-56
2023/07/17 08:31:19;;;;;;;;;;;;;;;20.82;63.21;101861.00;5055578;28;20022;-54
2023/07/17 08:33:44;;;;;;;;;;;;;;;21.03;64.69;101864.50;5056241;28;20294;-57
2023/07/17 08:36:09;;;;;;;;;;;;;;;21.20;62.23;101860.16;5057237;28;19924;-55
2023/07/17 08:38:35;;;;;;;;;;;;;;;21.15;60.45;101864.50;5056548;28;19963;-56
2023/07/17 08:41:00;;;;;;;;;;;;;;;21.03;60.58;101873.22;5034009;28;19921;-55
2023/07/17 08:43:26;;;;;;;;;;;;;;;21.13;60.46;101874.97;5055148;28;20505;-55
2023/07/17 08:45:52;;;;;;;;;;;;;;;21.38;58.82;101865.41;5059323;28;20386;-54
2023/07/17 08:48:17;;;;;;;;;;;;;;;21.29;57.68;101869.75;5039225;28;19924;-54
2023/07/17 08:50:43;;;;;;;;;;;;;;;21.11;60.27;101875.81;5051849;28;20020;-55
2023/07/17 08:53:09;;;;;;;;;;;;;;;21.00;59.18;101869.75;5053860;28;19916;-55
2023/07/17 08:55:35;;;;;;;;;;;;;;;21.08;57.10;101870.63;5055006;28;20023;-54
2023/07/17 08:58:03;;;;;;;;;;;;;;;21.37;58.76;101883.75;5059511;28;19920;-56
2023/07/17 09:00:29;;;;;;;;;;;;;;;21.45;57.05;101873.25;5057935;28;19925;-55
2023/07/17 09:02:55;;;;;;;;;;;;;;;21.53;57.65;101871.50;5055629;28;19921;-46
2023/07/17 09:05:20;;;;;;;;;;;;;;;21.77;59.44;101867.97;5053539;28;19927;-43
2023/07/17 09:07:47;;;;;;;;;;;;;;;21.72;57.35;101877.56;5054558;28;19984;-48
2023/07/17 09:10:19;;;;;;;;;;;;;;;21.69;57.13;101875.84;5051269;27;19924;-46
2023/07/17 09:12:48;;;;;;;;;;;;;;;21.72;58.20;101875.84;5057964;28;19949;-49
2023/07/17 09:15:17;;;;;;;;;;;;;;;21.91;57.72;101876.69;5055935;28;20035;-45
2023/07/17 09:17:43;;;;;;;;;;;;;;;22.01;58.91;101870.50;5057731;28;19921;-45
2023/07/17 09:20:10;;;;;;;;;;;;;;;21.99;56.43;101876.66;5055813;28;19939;-45
2023/07/17 09:22:35;;;;;;;;;;;;;;;21.98;55.77;101873.16;5057080;27;20035;-46
2023/07/17 09:25:01;;;;;;;;;;;;;;;22.04;57.04;101883.63;5039739;28;20015;-45
2023/07/17 09:27:26;;;;;;;;;;;;;;;22.04;55.32;101880.13;5038123;28;19924;-46
2023/07/17 09:29:51;;;;;;;;;;;;;;;22.12;54.66;101879.25;5060103;28;19921;-45
2023/07/17 09:32:21;;;;;;;;;;;;;;;22.17;55.09;101876.63;5055203;28;20381;-45
2023/07/17 09:34:51;;;;;;;;;;;;;;;22.03;54.59;101887.13;5040045;28;19974;-52
2023/07/17 09:37:16;;;;;;;;;;;;;;;21.69;55.51;101881.94;5057410;28;20010;-56
2023/07/17 09:39:41;;;;;;;;;;;;;;;21.37;55.67;101882.00;5057621;27;20441;-53
2023/07/17 09:42:22;;;;;;;;;;;;;;;21.29;56.27;101883.72;5057942;28;19913;-54
2023/07/17 09:44:47;;;;;;;;;;;;;;;21.39;55.88;101879.38;5041023;28;19927;-54
2023/07/17 09:47:12;;;;;;;;;;;;;;;21.63;54.55;101881.09;5056862;28;19920;-56
2023/07/17 09:49:38;;;;;;;;;;;;;;;21.69;54.71;101873.22;5054475;28;19921;-53
2023/07/17 09:52:04;;;;;;;;;;;;;;;21.89;52.06;101883.66;5056816;28;19927;-54
2023/07/17 09:54:29;;;;;;;;;;;;;;;21.91;54.06;101882.78;5062674;28;19920;-55
2023/07/17 09:56:55;;;;;;;;;;;;;;;21.86;51.10;101878.44;5044869;28;19928;-53
2023/07/17 09:59:20;;;;;;;;;;;;;;;21.77;52.38;101883.66;5065217;28;19920;-54
2023/07/17 10:01:47;;;;;;;;;;;;;;;21.82;53.28;101877.56;5067415;27;19917;-54
2023/07/17 10:04:33;;;;;;;;;;;;;;;21.78;52.86;101883.69;5067218;28;19951;-54
2023/07/17 10:07:01;;;;;;;;;;;;;;;22.00;52.30;101886.25;5064306;28;19919;-51
2023/07/17 10:09:28;;;;;;;;;;;;;;;22.07;52.41;101882.72;5065646;28;20430;-53
2023/07/17 10:11:53;;;;;;;;;;;;;;;22.00;52.16;101888.84;5065901;28;19964;-49
2023/07/17 10:14:19;;;;;;;;;;;;;;;22.28;52.08;101871.34;5061537;28;20016;-46
2023/07/17 10:16:44;;;;;;;;;;;;;;;22.49;50.53;101876.47;5062243;28;20497;-47
2023/07/17 10:19:10;;;;;;;;;;;;;;;22.88;48.46;101877.16;5059641;28;20294;-45
2023/07/17 10:21:50;;;;;;;;;;;;;;;23.13;49.03;101875.22;5040643;28;19925;-49
2023/07/17 10:24:16;;;;;;;;;;;;;;;23.14;49.95;101871.72;5063764;28;19962;-45
2023/07/17 10:26:45;;;;;;;;;;;;;;;22.76;46.45;101885.94;5066261;28;19916;-49
2023/07/17 10:29:10;;;;;;;;;;;;;;;22.40;48.00;101880.00;5068338;28;19921;-45
2023/07/17 10:31:47;;;;;;;;;;;;;;;22.44;47.62;101886.09;5064729;28;19917;-46
2023/07/17 10:34:12;;;;;;;;;;;;;;;22.63;47.99;101884.25;5060611;28;20399;-47
2023/07/17 10:36:44;;;;;;;;;;;;;;;22.77;49.21;101878.94;5043724;28;19956;-47
2023/07/17 10:39:17;;;;;;;;;;;;;;;22.74;46.17;101878.06;5062252;28;19956;-46
2023/07/17 10:41:42;;;;;;;;;;;;;;;22.46;47.12;101879.97;5060480;28;20405;-46
2023/07/17 10:44:08;;;;;;;;;;;;;;;22.40;48.01;101872.16;5063455;28;19916;-48
2023/07/17 10:46:37;;;;;;;;;;;;;;;22.72;48.00;101881.59;5046395;28;19916;-48
2023/07/17 10:49:06;;;;;;;;;;;;;;;22.94;47.38;101864.00;5058740;28;19916;-49
2023/07/17 10:51:32;;;;;;;;;;;;;;;22.96;46.58;101884.06;5065684;28;19946;-46
2023/07/17 10:53:57;;;;;;;;;;;;;;;22.95;45.05;101884.09;5066897;28;20294;-48
2023/07/17 10:56:23;;;;;;;;;;;;;;;22.83;45.80;101885.00;5067144;28;19916;-46
2023/07/17 10:58:48;;;;;;;;;;;;;;;22.68;46.52;101872.84;5063794;28;20341;-50
2023/07/17 11:01:15;;;;;;;;;;;;;;;22.65;47.25;101875.50;5059468;28;19961;-49
2023/07/17 11:03:42;;;;;;;;;;;;;;;22.74;47.20;101878.06;5060388;27;20008;-48
2023/07/17 11:06:08;;;;;;;;;;;;;;;22.88;47.39;101875.41;5059638;28;19912;-49
2023/07/17 11:08:33;;;;;;;;;;;;;;;22.93;45.33;101877.97;5063484;28;19926;-50
2023/07/17 11:10:58;;;;;;;;;;;;;;;23.01;46.04;101871.81;5060272;27;19939;-50
2023/07/17 11:13:29;;;;;;;;;;;;;;;23.20;45.70;101869.91;5064436;28;20370;-48
2023/07/17 11:15:54;;;;;;;;;;;;;;;23.49;44.97;101867.03;5062896;28;19965;-49
2023/07/17 11:18:19;;;;;;;;;;;;;;;23.68;45.72;101870.38;5066165;28;19996;-47
2023/07/17 11:20:44;;;;;;;;;;;;;;;23.70;44.46;101873.84;5066500;27;19916;-46
2023/07/17 11:23:11;;;;;;;;;;;;;;;23.84;43.65;101867.56;5058340;28;19921;-49
2023/07/17 11:25:36;;;;;;;;;;;;;;;23.88;43.94;101874.53;5064605;28;19943;-48
2023/07/17 11:28:02;;;;;;;;;;;;;;;24.04;44.10;101869.09;5063395;28;20295;-47
2023/07/17 11:30:32;;;;;;;;;;;;;;;24.27;44.39;101881.09;5066460;28;20323;-48
2023/07/17 11:32:57;;;;;;;;;;;;;;;24.30;44.51;101878.41;5065445;28;20362;-49
2023/07/17 11:35:22;;;;;;;;;;;;;;;24.25;42.78;101864.44;5067736;27;19960;-46
2023/07/17 11:37:48;;;;;;;;;;;;;;;24.27;42.40;101865.31;5054990;28;19924;-46
2023/07/17 11:40:13;;;;;;;;;;;;;;;24.29;44.22;101864.41;5057042;28;19928;-47
2023/07/17 11:42:55;;;;;;;;;;;;;;;24.30;41.63;101865.28;5062993;27;20322;-50
2023/07/17 11:45:25;;;;;;;;;;;;;;;24.21;43.20;101866.28;5061079;28;19920;-47
2023/07/17 11:47:51;;;;;;;;;;;;;;;24.13;42.81;101872.50;5064642;28;19916;-50
2023/07/17 11:50:20;;;;;;;;;;;;;;;24.08;43.22;101873.41;5047058;28;19938;-48
2023/07/17 11:52:45;;;;;;;;;;;;;;;23.98;42.83;101868.31;5066596;28;19964;-48
2023/07/17 11:55:11;;;;;;;;;;;;;;;23.82;42.79;101870.22;5065305;28;19916;-50
2023/07/17 11:57:36;;;;;;;;;;;;;;;23.64;43.28;101862.53;5066006;28;20037;-49
2023/07/17 12:00:07;;;;;;;;;;;;;;;23.61;44.08;101860.78;5047929;28;20019;-48
2023/07/17 12:02:32;;;;;;;;;;;;;;;23.63;46.00;101871.31;5066906;28;19977;-50
2023/07/17 12:05:02;;;;;;;;;;;;;;;23.79;45.24;101868.50;5059634;28;20344;-48
2023/07/17 12:07:27;;;;;;;;;;;;;;;24.00;44.71;101877.88;5056655;28;19965;-46
2023/07/17 12:09:53;;;;;;;;;;;;;;;23.91;45.52;101867.50;5060729;28;19928;-51
2023/07/17 12:12:18;;;;;;;;;;;;;;;23.69;45.39;101863.38;5059806;28;19929;-48
2023/07/17 12:14:43;;;;;;;;;;;;;;;23.47;46.24;101865.28;5061016;28;19928;-49
2023/07/17 12:17:08;;;;;;;;;;;;;;;23.32;46.16;101860.19;5062867;28;19916;-50
2023/07/17 12:19:34;;;;;;;;;;;;;;;23.17;47.56;101867.28;5043890;28;19985;-49
2023/07/17 12:21:59;;;;;;;;;;;;;;;23.17;47.29;101866.41;5065003;28;19960;-49
2023/07/17 12:24:24;;;;;;;;;;;;;;;23.03;48.10;101861.28;5060076;28;19917;-49
2023/07/17 12:26:50;;;;;;;;;;;;;;;23.04;48.54;101863.03;5060166;28;19917;-47